Time;durP1;ratioP1;P1;durP2;ratioP2;P2;SDS_P1;SDS_P2;PMS_P1;PMS_P2;Temp;Humidity;BMP_temperature;BMP_pressure;BME280_temperature;BME280_humidity;BME280_pressure;Samples;Min_cycle;Max_cycle;Signal;HPM_P1;HPM_P2
2021/03/03 00:02:24;;;;;;;19.67;16.80;;;;;;;9.01;58.27;101587.31;10319812;28;20100;-70
2021/03/03 00:07:25;;;;;;;23.30;18.80;;;;;;;9.12;58.25;101600.88;10308698;28;20694;-69
2021/03/03 00:12:27;;;;;;;21.80;18.90;;;;;;;9.13;58.17;101610.56;10309317;28;20100;-69
2021/03/03 00:17:28;;;;;;;20.08;16.90;;;;;;;9.13;58.63;101618.53;10310431;28;20073;-70
2021/03/03 00:22:29;;;;;;;20.13;17.77;;;;;;;8.91;58.82;101609.97;10308797;28;20050;-70
2021/03/03 00:27:31;;;;;;;21.08;17.85;;;;;;;8.66;59.47;101584.69;10306534;28;20129;-68
2021/03/03 00:32:47;;;;;;;22.60;18.08;;;;;;;8.59;59.71;101588.59;10309867;28;20284;-70
2021/03/03 00:37:49;;;;;;;24.95;18.20;;;;;;;8.51;60.23;101606.69;10311120;28;20129;-70
2021/03/03 00:42:50;;;;;;;21.67;17.73;;;;;;;8.47;60.35;101598.91;10345247;28;20432;-68
2021/03/03 00:47:51;;;;;;;23.25;17.92;;;;;;;8.35;60.54;101602.13;10311830;28;20723;-70
2021/03/03 00:52:52;;;;;;;20.63;16.75;;;;;;;8.45;60.51;101600.78;10230417;23;20063;-56
2021/03/03 00:57:54;;;;;;;21.15;17.95;;;;;;;8.55;60.03;101597.66;10222921;28;20055;-56
2021/03/03 01:03:07;;;;;;;18.52;16.20;;;;;;;8.63;59.50;101590.16;10221785;28;20051;-56
2021/03/03 01:08:09;;;;;;;20.63;16.75;;;;;;;8.44;60.00;101591.09;10220911;28;20062;-56
2021/03/03 01:13:11;;;;;;;20.92;16.75;;;;;;;8.35;60.32;101588.88;10217664;28;20326;-56
2021/03/03 01:18:12;;;;;;;18.42;16.10;;;;;;;8.38;59.87;101586.06;10224460;28;20070;-55
2021/03/03 01:23:14;;;;;;;17.92;15.25;;;;;;;8.40;59.63;101589.47;10222012;28;20055;-57
2021/03/03 01:28:15;;;;;;;17.88;15.40;;;;;;;8.21;60.26;101588.69;10225455;28;20232;-56
2021/03/03 01:33:30;;;;;;;19.73;17.05;;;;;;;8.06;60.77;101580.56;10223241;28;20057;-56
2021/03/03 01:38:32;;;;;;;18.85;16.58;;;;;;;8.03;60.99;101583.38;10229413;28;20367;-56
2021/03/03 01:43:33;;;;;;;21.48;17.17;;;;;;;8.08;60.67;101583.13;10226322;28;20098;-55
2021/03/03 01:48:34;;;;;;;20.23;17.05;;;;;;;8.00;60.87;101595.91;10226760;28;20444;-55
2021/03/03 01:53:36;;;;;;;18.67;16.77;;;;;;;7.93;60.51;101587.38;10230179;28;20051;-57
2021/03/03 01:58:38;;;;;;;23.25;19.08;;;;;;;7.96;60.48;101587.25;10227762;28;20051;-56
2021/03/03 02:03:50;;;;;;;18.35;16.23;;;;;;;7.86;60.82;101580.66;10221841;28;20079;-56
2021/03/03 02:09:01;;;;;;;21.13;15.63;;;;;;;7.68;61.27;101567.34;10229665;28;20055;-55
2021/03/03 02:14:06;;;;;;;19.70;15.63;;;;;;;7.61;61.55;101571.19;10227278;28;20047;-56
2021/03/03 02:19:14;;;;;;;18.60;16.48;;;;;;;7.58;61.69;101568.69;10231605;28;20130;-56
2021/03/03 02:24:22;;;;;;;21.30;16.33;;;;;;;7.49;61.54;101559.41;10234312;28;20481;-57
2021/03/03 02:29:27;;;;;;;20.83;17.88;;;;;;;7.40;61.49;101560.69;10228468;28;20051;-56
2021/03/03 02:34:29;;;;;;;18.57;16.57;;;;;;;7.36;61.89;101556.47;10239632;28;20089;-58
2021/03/03 02:39:31;;;;;;;18.15;15.48;;;;;;;7.32;61.81;101554.03;10226187;28;20047;-55
2021/03/03 02:44:34;;;;;;;19.65;17.40;;;;;;;7.26;62.19;101553.38;10226569;28;20051;-56
2021/03/03 02:49:36;;;;;;;20.33;17.08;;;;;;;7.24;62.16;101554.38;10234193;28;20065;-56
2021/03/03 02:54:37;;;;;;;18.88;16.27;;;;;;;7.13;62.27;101546.94;10232732;28;20113;-56
2021/03/03 02:59:45;;;;;;;19.30;17.05;;;;;;;7.10;62.03;101544.44;10228750;28;20055;-55
2021/03/03 03:04:48;;;;;;;22.13;17.75;;;;;;;7.07;62.60;101537.47;10222276;28;20074;-57
2021/03/03 03:09:51;;;;;;;14.00;11.87;;;;;;;7.15;62.98;101539.78;10224658;28;20221;-56
2021/03/03 03:14:53;;;;;;;20.42;17.15;;;;;;;7.19;63.10;101532.53;10225180;28;20066;-55
2021/03/03 03:19:57;;;;;;;20.73;17.33;;;;;;;7.19;63.18;101536.06;10231216;28;20059;-58
2021/03/03 03:24:59;;;;;;;21.45;17.13;;;;;;;7.10;63.16;101527.66;10233004;28;20534;-56
2021/03/03 03:30:01;;;;;;;19.90;17.77;;;;;;;7.20;63.38;101550.16;10225296;28;20151;-55
2021/03/03 03:35:02;;;;;;;19.33;16.95;;;;;;;7.20;63.10;101543.06;10224596;28;20062;-56
2021/03/03 03:40:05;;;;;;;19.38;16.73;;;;;;;7.15;63.26;101537.13;10223672;28;20059;-56
2021/03/03 03:45:07;;;;;;;18.80;16.45;;;;;;;7.19;63.26;101545.78;10223943;28;20077;-55
2021/03/03 03:50:09;;;;;;;18.55;16.13;;;;;;;7.14;63.48;101531.91;10222460;28;20043;-57
2021/03/03 03:55:11;;;;;;;18.73;16.42;;;;;;;7.10;63.67;101525.91;10230614;28;20063;-55
2021/03/03 04:00:14;;;;;;;20.30;17.00;;;;;;;7.05;63.92;101544.59;10229127;28;20126;-56
2021/03/03 04:05:21;;;;;;;18.90;16.27;;;;;;;7.18;63.48;101539.63;10225802;28;20051;-55
2021/03/03 04:10:25;;;;;;;19.48;16.42;;;;;;;7.15;63.51;101544.22;10230298;28;20055;-56
2021/03/03 04:15:27;;;;;;;17.95;15.68;;;;;;;7.08;63.65;101548.91;10222512;28;20075;-56
2021/03/03 04:20:29;;;;;;;18.63;16.50;;;;;;;7.05;63.74;101539.31;10220761;28;20073;-60
2021/03/03 04:25:30;;;;;;;19.95;16.38;;;;;;;7.07;63.59;101542.78;10223655;28;20047;-56
2021/03/03 04:30:32;;;;;;;22.73;17.35;;;;;;;6.94;63.57;101538.94;10223643;28;20067;-57
2021/03/03 04:35:52;;;;;;;19.35;16.58;;;;;;;6.95;63.49;101530.09;10226929;28;20514;-56
2021/03/03 04:40:54;;;;;;;20.98;17.45;;;;;;;6.86;63.77;101527.84;10241033;28;20423;-55
2021/03/03 04:45:55;;;;;;;19.27;16.38;;;;;;;6.78;63.53;101529.97;10222222;28;20051;-56
2021/03/03 04:50:56;;;;;;;19.77;17.75;;;;;;;6.72;63.48;101521.41;10230991;28;20044;-55
2021/03/03 04:55:58;;;;;;;19.55;17.48;;;;;;;6.64;63.15;101525.28;10227120;28;20043;-55
2021/03/03 05:00:59;;;;;;;24.67;18.67;;;;;;;6.57;62.93;101535.28;10223337;28;20054;-57
2021/03/03 05:06:10;;;;;;;19.85;17.45;;;;;;;6.72;62.29;101542.56;10221409;28;20069;-56
2021/03/03 05:11:12;;;;;;;23.08;18.52;;;;;;;6.72;62.01;101531.97;10233846;28;20586;-56
2021/03/03 05:16:13;;;;;;;21.25;17.30;;;;;;;6.61;62.26;101528.06;10233033;28;20505;-56
2021/03/03 05:21:14;;;;;;;20.23;17.00;;;;;;;6.62;63.10;101541.25;10227466;28;20047;-55
2021/03/03 05:26:16;;;;;;;21.38;17.90;;;;;;;6.50;63.12;101539.97;10228484;28;20126;-55
2021/03/03 05:31:17;;;;;;;20.98;18.15;;;;;;;6.49;63.46;101532.09;10231555;28;20070;-55
2021/03/03 05:36:33;;;;;;;19.98;16.63;;;;;;;6.42;63.67;101518.28;10232598;28;20054;-55
2021/03/03 05:41:35;;;;;;;22.85;19.80;;;;;;;6.54;63.37;101532.75;10224087;28;20078;-55
2021/03/03 05:46:37;;;;;;;21.52;19.20;;;;;;;6.45;63.69;101534.00;10226002;28;20047;-55
2021/03/03 05:51:41;;;;;;;20.70;17.10;;;;;;;6.55;63.59;101529.19;10232380;28;20392;-55
2021/03/03 05:56:45;;;;;;;19.33;15.95;;;;;;;6.46;63.54;101524.31;10232477;28;20066;-55
2021/03/03 06:01:48;;;;;;;26.88;24.05;;;;;;;6.32;64.03;101512.53;10230269;28;20043;-56
2021/03/03 06:06:56;;;;;;;29.52;26.35;;;;;;;6.44;64.13;101523.50;10213934;28;20071;-56
2021/03/03 06:11:57;;;;;;;25.63;21.15;;;;;;;6.46;64.00;101522.50;10221171;28;20056;-55
2021/03/03 06:16:59;;;;;;;23.80;21.08;;;;;;;6.45;64.04;101512.00;10217635;28;20579;-55
2021/03/03 06:22:24;;;;;;;20.92;18.25;;;;;;;6.36;64.05;101519.41;10223198;28;20051;-55
2021/03/03 06:27:37;;;;;;;20.38;16.90;;;;;;;6.25;64.44;101521.66;10221025;28;20362;-55
2021/03/03 06:33:01;;;;;;;23.02;17.90;;;;;;;6.19;64.90;101532.47;10219863;28;20108;-55
2021/03/03 06:38:04;;;;;;;21.58;17.42;;;;;;;6.21;64.55;101541.19;10221132;28;20433;-55
2021/03/03 06:43:26;;;;;;;20.75;17.05;;;;;;;6.11;64.78;101546.03;10222945;28;20035;-56
2021/03/03 06:48:41;;;;;;;19.80;17.00;;;;;;;6.15;64.68;101552.88;10224211;28;20050;-57
2021/03/03 06:53:42;;;;;;;19.35;15.55;;;;;;;6.17;64.37;101550.16;10233528;28;20051;-55
2021/03/03 06:58:44;;;;;;;21.13;16.85;;;;;;;6.19;64.41;101553.63;10219687;28;20076;-55
2021/03/03 07:03:45;;;;;;;23.30;16.77;;;;;;;6.18;64.30;101552.78;10220638;28;20165;-56
2021/03/03 07:08:59;;;;;;;23.75;17.15;;;;;;;6.19;64.49;101551.84;10238826;28;20054;-56
2021/03/03 07:14:21;;;;;;;18.98;16.55;;;;;;;6.30;64.56;101561.97;10225110;28;20043;-56
2021/03/03 07:19:22;;;;;;;21.95;15.40;;;;;;;6.34;64.65;101557.41;10218540;28;20047;-61
2021/03/03 07:24:25;;;;;;;21.52;15.43;;;;;;;6.37;64.30;101568.72;10197247;28;20114;-61
2021/03/03 07:29:26;;;;;;;22.90;16.20;;;;;;;6.42;63.87;101550.00;10210002;28;20055;-56
2021/03/03 07:34:29;;;;;;;23.67;17.83;;;;;;;6.58;63.47;101558.16;10196581;28;20067;-55
2021/03/03 07:39:33;;;;;;;22.77;17.63;;;;;;;6.61;63.13;101562.47;10201970;28;20591;-56
2021/03/03 07:44:40;;;;;;;22.47;17.23;;;;;;;6.63;63.04;101553.53;10201670;28;20630;-55
2021/03/03 07:49:46;;;;;;;19.90;17.77;;;;;;;6.61;62.95;101559.81;10199982;28;20122;-57
2021/03/03 07:54:48;;;;;;;23.83;18.48;;;;;;;6.64;63.08;101552.59;10199002;28;20102;-55
2021/03/03 07:59:52;;;;;;;24.48;18.05;;;;;;;6.72;61.97;101531.97;10213912;28;20054;-56
2021/03/03 08:05:02;;;;;;;23.98;18.48;;;;;;;7.07;61.05;101548.06;10215669;28;20047;-57
2021/03/03 08:10:13;;;;;;;23.63;18.55;;;;;;;7.31;60.49;101547.88;10202079;28;20059;-56
2021/03/03 08:15:46;;;;;;;24.05;18.30;;;;;;;7.47;60.22;101540.06;10202281;28;20554;-57
2021/03/03 08:20:58;;;;;;;27.73;18.75;;;;;;;7.67;59.23;101549.75;10217372;23;20386;-69
2021/03/03 08:26:16;;;;;;;24.67;17.98;;;;;;;7.78;59.46;101558.03;10270598;28;20058;-71
2021/03/03 08:31:19;;;;;;;22.30;19.35;;;;;;;7.73;59.28;101552.09;10249405;28;20097;-71
2021/03/03 08:36:25;;;;;;;25.55;19.08;;;;;;;7.92;59.31;101554.69;10260079;28;20577;-69
2021/03/03 08:41:26;;;;;;;22.77;18.55;;;;;;;7.90;59.50;101551.28;10269283;28;20059;-70
2021/03/03 08:46:27;;;;;;;22.05;19.15;;;;;;;8.01;59.16;101561.34;10264476;28;20140;-70
2021/03/03 08:51:43;;;;;;;29.35;18.92;;;;;;;7.96;59.69;101566.03;10265634;28;20056;-69
2021/03/03 08:56:48;;;;;;;24.88;19.95;;;;;;;7.94;59.70;101554.63;10263763;28;20098;-70
2021/03/03 09:01:57;;;;;;;;;;;;;;;8.26;59.29;101549.53;10264462;28;20113;-71
2021/03/03 09:07:13;;;;;;;29.67;20.05;;;;;;;8.72;58.09;101536.59;10264223;28;19930;-69
2021/03/03 09:12:20;;;;;;;28.92;20.98;;;;;;;9.00;57.03;101535.13;10264693;28;20082;-70
2021/03/03 09:17:27;;;;;;;24.35;18.90;;;;;;;9.15;57.11;101533.44;10269869;28;20050;-72
2021/03/03 09:22:40;;;;;;;25.13;19.75;;;;;;;9.62;55.78;101521.13;10252627;28;20039;-69
2021/03/03 09:27:58;;;;;;;25.60;18.55;;;;;;;10.14;54.40;101526.13;10265206;28;20193;-70
2021/03/03 09:33:06;;;;;;;23.08;19.27;;;;;;;10.25;54.07;101521.03;10266117;28;20154;-71
2021/03/03 09:38:10;;;;;;;24.25;19.63;;;;;;;10.16;54.25;101524.22;10261582;28;20418;-69
2021/03/03 09:43:15;;;;;;;30.30;19.13;;;;;;;10.43;53.75;101512.94;10262487;28;20106;-69
2021/03/03 09:48:27;;;;;;;24.60;20.02;;;;;;;10.90;52.47;101510.97;10278032;28;20126;-70
2021/03/03 09:53:30;;;;;;;28.75;19.95;;;;;;;11.17;51.56;101503.09;10259669;28;20046;-71
2021/03/03 09:58:31;;;;;;;24.75;20.05;;;;;;;11.30;51.56;101509.38;10260951;28;20125;-70
2021/03/03 10:03:33;;;;;;;22.27;19.17;;;;;;;11.76;50.61;101512.69;10260554;28;20069;-69
2021/03/03 10:08:36;;;;;;;25.33;21.08;;;;;;;12.13;49.49;101512.91;10259585;28;20596;-69
2021/03/03 10:13:41;;;;;;;24.48;20.60;;;;;;;12.71;48.13;101497.41;10275817;28;20113;-69
2021/03/03 10:18:59;;;;;;;24.45;21.38;;;;;;;13.35;46.06;101502.69;10260093;28;20050;-70
2021/03/03 10:24:14;;;;;;;25.85;20.13;;;;;;;13.21;46.24;101494.78;10259395;28;20784;-70
2021/03/03 10:29:42;;;;;;;26.73;20.08;;;;;;;13.49;45.87;101490.16;10258624;28;20049;-70
2021/03/03 10:34:44;;;;;;;26.00;21.05;;;;;;;13.76;45.51;101490.75;10254653;28;20129;-71
2021/03/03 10:39:45;;;;;;;22.65;20.35;;;;;;;15.01;42.41;101478.56;10260052;28;20051;-70
2021/03/03 10:44:49;;;;;;;25.55;20.50;;;;;;;16.76;39.72;101483.72;10260588;28;20126;-69
2021/03/03 10:50:04;;;;;;;24.63;21.60;;;;;;;18.98;34.24;101470.69;10259772;28;20054;-70
2021/03/03 10:55:21;;;;;;;27.67;21.08;;;;;;;20.63;31.45;101469.56;10260238;28;20094;-70
2021/03/03 11:00:22;;;;;;;25.80;23.13;;;;;;;21.88;28.62;101465.25;10258162;28;20050;-70
2021/03/03 11:05:23;;;;;;;26.90;22.67;;;;;;;22.68;26.92;101460.13;10260726;28;20595;-71
2021/03/03 11:10:38;;;;;;;24.20;21.70;;;;;;;23.64;25.97;101467.19;10263551;28;20055;-71
2021/03/03 11:15:41;;;;;;;25.95;20.55;;;;;;;24.93;25.18;101466.31;10259812;28;20057;-69
2021/03/03 11:20:42;;;;;;;23.17;20.02;;;;;;;25.82;22.89;101448.06;10260291;28;20054;-71
2021/03/03 11:25:44;;;;;;;22.85;19.98;;;;;;;26.29;22.28;101441.16;10256086;28;20141;-70
2021/03/03 11:30:47;;;;;;;22.88;20.48;;;;;;;26.89;21.40;101427.00;10259115;28;20062;-70
2021/03/03 11:35:49;;;;;;;22.15;19.92;;;;;;;28.05;20.42;101426.06;10261234;28;20764;-71
2021/03/03 11:41:00;;;;;;;21.92;19.55;;;;;;;27.43;20.25;101418.00;10262467;28;22105;-72
2021/03/03 11:46:05;;;;;;;21.58;19.30;;;;;;;27.58;20.44;101419.69;10260712;28;20061;-71
2021/03/03 11:51:07;;;;;;;20.15;18.20;;;;;;;28.90;18.87;101406.91;10266557;28;20051;-72
2021/03/03 11:56:09;;;;;;;21.95;19.85;;;;;;;29.71;18.21;101398.22;10263774;28;20051;-70
2021/03/03 12:01:10;;;;;;;;;;;;;;;30.93;17.26;101397.63;10262181;28;20572;-71
2021/03/03 12:06:11;;;;;;;21.93;19.73;;;;;;;30.50;17.11;101376.59;10258658;28;19922;-71
2021/03/03 12:11:26;;;;;;;20.85;18.80;;;;;;;30.05;17.70;101374.09;10257547;28;20050;-71
2021/03/03 12:16:27;;;;;;;;;;;;;;;31.55;16.48;101363.56;10256752;28;20141;-72
2021/03/03 12:21:29;;;;;;;20.10;18.10;;;;;;;31.46;15.87;101348.44;10265044;28;19930;-70
2021/03/03 12:26:30;;;;;;;19.60;17.60;;;;;;;32.39;15.58;101346.78;10277729;28;20056;-71
2021/03/03 12:31:32;;;;;;;20.10;18.23;;;;;;;32.01;15.54;101336.31;10260263;28;20059;-70
2021/03/03 12:36:34;;;;;;;18.88;16.67;;;;;;;32.24;15.20;101318.94;10271718;28;20081;-72
2021/03/03 12:41:51;;;;;;;19.25;17.05;;;;;;;31.90;14.83;101314.06;10256568;28;20046;-72
2021/03/03 12:46:52;;;;;;;17.55;15.65;;;;;;;32.81;14.65;101303.56;10256807;28;20055;-71
2021/03/03 12:51:53;;;;;;;16.48;14.88;;;;;;;33.01;13.76;101306.69;10256488;28;20062;-71
2021/03/03 12:56:55;;;;;;;15.90;14.35;;;;;;;33.54;13.68;101292.69;10258737;28;20043;-72
2021/03/03 13:01:56;;;;;;;16.52;14.93;;;;;;;32.22;13.83;101288.06;10257688;28;20137;-73
2021/03/03 13:06:57;;;;;;;16.98;15.23;;;;;;;32.42;14.02;101284.88;10259649;28;20114;-71
2021/03/03 13:11:59;;;;;;;18.50;15.90;;;;;;;30.21;16.26;101279.34;10256149;28;20053;-72
2021/03/03 13:17:02;;;;;;;17.88;15.85;;;;;;;30.51;15.75;101273.91;10254398;28;20609;-73
2021/03/03 13:22:03;;;;;;;16.60;15.00;;;;;;;31.54;14.85;101271.06;10256440;28;20058;-71
2021/03/03 13:27:05;;;;;;;17.70;15.40;;;;;;;31.60;15.09;101259.13;10258566;28;20051;-71
2021/03/03 13:32:10;;;;;;;17.23;15.57;;;;;;;30.94;14.86;101242.63;10265590;28;20620;-71
2021/03/03 13:37:12;;;;;;;16.20;14.68;;;;;;;31.11;15.56;101240.06;10268542;28;20043;-71
2021/03/03 13:42:21;;;;;;;17.90;15.63;;;;;;;31.20;15.33;101235.06;10264658;28;20055;-71
2021/03/03 13:47:22;;;;;;;17.83;15.88;;;;;;;31.52;14.74;101234.69;10265049;28;20054;-73
2021/03/03 13:52:24;;;;;;;17.60;15.85;;;;;;;31.49;14.79;101227.75;10264496;28;20105;-73
2021/03/03 13:57:25;;;;;;;17.45;15.18;;;;;;;31.21;14.95;101225.72;10261925;28;20055;-71
2021/03/03 14:02:28;;;;;;;18.40;16.50;;;;;;;30.79;15.17;101218.34;10263509;28;20142;-73
2021/03/03 14:07:31;;;;;;;18.15;16.23;;;;;;;30.95;15.14;101222.31;10261625;28;20050;-71
2021/03/03 14:12:33;;;;;;;16.83;15.23;;;;;;;30.41;15.47;101207.69;10261048;28;20688;-73
2021/03/03 14:17:34;;;;;;;17.33;15.63;;;;;;;29.48;16.14;101210.41;10265734;28;20137;-72
2021/03/03 14:22:36;;;;;;;18.60;16.67;;;;;;;28.78;17.25;101200.47;10266820;28;20055;-70
2021/03/03 14:27:37;;;;;;;19.60;17.50;;;;;;;28.61;17.40;101199.31;10263271;28;20054;-70
2021/03/03 14:32:39;;;;;;;20.35;16.92;;;;;;;28.43;17.56;101194.53;10260807;28;20075;-70
2021/03/03 14:37:40;;;;;;;22.90;18.17;;;;;;;28.13;18.05;101195.09;10261173;28;20058;-71
2021/03/03 14:42:42;;;;;;;19.77;17.23;;;;;;;27.83;18.62;101191.00;10260355;28;20113;-70
2021/03/03 14:47:43;;;;;;;19.88;17.77;;;;;;;27.26;19.21;101190.66;10262888;28;20174;-70
2021/03/03 14:52:45;;;;;;;20.10;18.17;;;;;;;26.40;20.19;101191.38;10262311;28;20062;-70
2021/03/03 14:57:46;;;;;;;19.40;17.35;;;;;;;25.37;21.52;101171.16;10264844;28;20141;-71
2021/03/03 15:02:47;;;;;;;23.67;18.63;;;;;;;23.77;23.55;101169.44;10261012;28;20051;-70
2021/03/03 15:07:49;;;;;;;22.57;18.90;;;;;;;22.28;25.32;101171.69;10261226;28;20624;-71
2021/03/03 15:12:50;;;;;;;21.20;18.77;;;;;;;21.37;27.09;101169.28;10260736;28;20154;-70
2021/03/03 15:17:51;;;;;;;20.67;18.50;;;;;;;20.27;28.10;101164.16;10259853;28;20272;-70
2021/03/03 15:22:53;;;;;;;23.70;18.73;;;;;;;19.48;29.58;101158.06;10282200;28;20053;-71
2021/03/03 15:27:54;;;;;;;21.77;19.17;;;;;;;19.15;30.55;101149.75;10263705;28;20763;-70
2021/03/03 15:32:55;;;;;;;21.58;18.52;;;;;;;18.33;31.87;101156.09;10260814;28;20062;-72
2021/03/03 15:37:57;;;;;;;23.20;19.58;;;;;;;18.15;32.26;101148.00;10257427;28;20190;-72
2021/03/03 15:42:58;;;;;;;26.55;19.88;;;;;;;17.62;33.26;101136.00;10264592;28;20142;-70
2021/03/03 15:48:00;;;;;;;23.10;19.00;;;;;;;17.45;33.86;101126.88;10261335;28;20134;-71
2021/03/03 15:53:02;;;;;;;25.95;18.92;;;;;;;17.24;34.38;101121.72;10260891;28;20046;-70
2021/03/03 15:58:03;;;;;;;26.08;19.05;;;;;;;16.83;34.51;101118.38;10255969;28;20047;-70
2021/03/03 16:03:05;;;;;;;26.85;21.25;;;;;;;16.36;35.41;101121.78;10257726;28;20074;-68
2021/03/03 16:08:06;;;;;;;22.88;19.70;;;;;;;16.20;36.47;101133.06;10259203;28;20513;-70
2021/03/03 16:13:08;;;;;;;26.70;20.73;;;;;;;16.00;37.22;101128.63;10260044;28;20102;-70
2021/03/03 16:18:10;;;;;;;27.85;21.95;;;;;;;15.92;37.71;101128.50;10257500;28;20132;-71
2021/03/03 16:23:11;;;;;;;26.73;20.48;;;;;;;15.90;37.88;101129.47;10270768;28;20815;-70
2021/03/03 16:28:12;;;;;;;24.70;20.63;;;;;;;15.94;37.72;101126.50;10263752;28;20043;-71
2021/03/03 16:33:14;;;;;;;26.38;21.13;;;;;;;15.82;38.28;101121.25;10258130;28;20134;-70
2021/03/03 16:38:23;;;;;;;25.30;22.55;;;;;;;15.68;38.68;101119.75;10272935;28;20394;-69
2021/03/03 16:43:25;;;;;;;27.10;23.40;;;;;;;15.57;39.19;101098.38;10279618;28;20054;-69
2021/03/03 16:48:26;;;;;;;29.30;21.38;;;;;;;15.51;39.44;101105.13;10258371;28;20139;-69
2021/03/03 16:53:27;;;;;;;24.90;21.20;;;;;;;15.43;39.87;101107.63;10256643;28;20109;-69
2021/03/03 16:58:29;;;;;;;25.92;22.90;;;;;;;15.42;40.26;101116.69;10269974;28;20042;-69
2021/03/03 17:03:30;;;;;;;27.42;21.90;;;;;;;15.33;40.45;101102.22;10260695;28;20776;-69
2021/03/03 17:08:33;;;;;;;24.85;21.65;;;;;;;15.29;41.25;101113.38;10264799;28;20055;-69
2021/03/03 17:13:35;;;;;;;28.42;22.25;;;;;;;15.15;41.47;101115.41;10264338;28;20686;-71
2021/03/03 17:18:36;;;;;;;29.02;21.95;;;;;;;15.01;41.79;101118.41;10278294;28;20132;-70
2021/03/03 17:23:38;;;;;;;28.05;23.23;;;;;;;14.88;42.33;101107.91;10260788;28;20536;-69
2021/03/03 17:28:39;;;;;;;26.83;24.00;;;;;;;14.77;42.38;101110.63;10265702;28;20046;-70
2021/03/03 17:33:40;;;;;;;27.52;22.83;;;;;;;14.72;43.21;101112.88;10265862;28;20062;-71
2021/03/03 17:38:41;;;;;;;31.25;24.20;;;;;;;14.62;43.51;101104.75;10263765;28;20581;-70
2021/03/03 17:43:43;;;;;;;28.45;23.70;;;;;;;14.51;43.69;101116.31;10264091;28;20046;-70
2021/03/03 17:48:44;;;;;;;27.92;22.77;;;;;;;14.43;43.92;101119.66;10262289;28;20077;-70
2021/03/03 17:53:45;;;;;;;25.40;21.98;;;;;;;14.41;44.22;101115.38;10263051;28;20130;-72
2021/03/03 17:58:47;;;;;;;25.10;21.65;;;;;;;14.32;44.23;101117.00;10263560;28;20423;-72
2021/03/03 18:03:48;;;;;;;32.80;23.30;;;;;;;14.21;44.69;101111.69;10257569;28;20043;-71
2021/03/03 18:08:50;;;;;;;26.55;21.85;;;;;;;14.15;44.69;101108.53;10256226;28;20050;-72
2021/03/03 18:13:51;;;;;;;28.88;22.42;;;;;;;14.03;44.53;101106.03;10259153;28;20059;-70
2021/03/03 18:18:53;;;;;;;26.58;20.65;;;;;;;14.02;44.58;101107.84;10261924;28;20074;-71
2021/03/03 18:23:54;;;;;;;29.75;22.17;;;;;;;13.90;45.24;101100.81;10258549;28;20047;-71
2021/03/03 18:28:55;;;;;;;27.65;21.92;;;;;;;13.79;45.50;101096.31;10256744;28;21637;-70
2021/03/03 18:33:57;;;;;;;28.67;23.48;;;;;;;13.70;45.75;101084.53;10259283;28;20125;-70
2021/03/03 18:38:58;;;;;;;28.67;22.67;;;;;;;13.52;46.41;101081.50;10257659;28;20046;-68
2021/03/03 18:44:03;;;;;;;30.98;21.88;;;;;;;13.43;45.79;101075.06;10255107;28;20135;-69
2021/03/03 18:49:06;;;;;;;28.45;23.27;;;;;;;13.38;46.66;101079.94;10258547;28;20130;-69
2021/03/03 18:54:07;;;;;;;28.20;21.88;;;;;;;13.25;47.09;101087.19;10256919;28;20067;-71
2021/03/03 18:59:08;;;;;;;30.48;24.40;;;;;;;13.26;47.27;101086.22;10261300;28;20174;-70
2021/03/03 19:04:10;;;;;;;28.92;21.25;;;;;;;13.07;47.82;101082.31;10263116;28;20046;-71
2021/03/03 19:09:11;;;;;;;30.08;22.15;;;;;;;13.01;47.68;101073.94;10255745;28;20094;-70
2021/03/03 19:14:12;;;;;;;42.55;22.65;;;;;;;12.98;48.33;101076.84;10257040;28;20131;-70
2021/03/03 19:19:14;;;;;;;28.63;22.88;;;;;;;13.10;47.97;101075.88;10260008;28;20054;-70
2021/03/03 19:24:15;;;;;;;28.48;20.88;;;;;;;13.13;47.83;101074.81;10293556;23;20074;-57
2021/03/03 19:29:16;;;;;;;29.52;21.58;;;;;;;13.08;47.53;101067.97;10281701;28;20475;-55
2021/03/03 19:34:17;;;;;;;30.17;22.02;;;;;;;13.04;47.39;101073.69;10254797;28;20074;-58
2021/03/03 19:39:19;;;;;;;27.48;20.83;;;;;;;12.95;47.41;101072.56;10257555;28;20124;-56
2021/03/03 19:44:21;;;;;;;29.05;21.10;;;;;;;12.87;46.97;101069.66;10256604;28;20088;-58
2021/03/03 19:49:23;;;;;;;31.45;22.05;;;;;;;12.88;46.95;101066.88;10251179;28;20439;-59
2021/03/03 19:54:25;;;;;;;27.35;20.98;;;;;;;12.81;46.79;101062.13;10253207;28;20137;-56
2021/03/03 19:59:27;;;;;;;28.77;21.17;;;;;;;12.68;47.09;101055.03;10253396;28;20756;-59
2021/03/03 20:04:28;;;;;;;28.83;22.05;;;;;;;12.64;47.29;101042.91;10255283;28;20063;-56
2021/03/03 20:09:30;;;;;;;36.85;22.40;;;;;;;12.62;47.37;101050.16;10252993;28;20364;-57
2021/03/03 20:14:31;;;;;;;27.77;20.95;;;;;;;12.58;47.63;101048.72;10252291;28;20173;-57
2021/03/03 20:19:32;;;;;;;28.65;22.52;;;;;;;12.66;47.72;101040.94;10257406;28;20813;-59
2021/03/03 20:24:34;;;;;;;31.10;23.65;;;;;;;12.65;47.83;101041.91;10224407;28;769601;-56
2021/03/03 20:29:35;;;;;;;32.67;24.58;;;;;;;12.55;48.16;101022.25;10252452;28;20054;-57
2021/03/03 20:34:37;;;;;;;29.33;22.63;;;;;;;12.49;48.10;101049.38;10254370;28;20126;-58
2021/03/03 20:39:38;;;;;;;29.33;21.80;;;;;;;12.48;48.37;101037.88;10257004;28;20595;-58
2021/03/03 20:44:39;;;;;;;33.10;22.50;;;;;;;12.49;48.50;101034.25;10260161;28;20531;-57
2021/03/03 20:49:41;;;;;;;32.20;22.42;;;;;;;12.43;48.46;101009.81;10260888;28;20145;-57
2021/03/03 20:54:42;;;;;;;30.83;23.45;;;;;;;12.46;48.42;101023.78;10263772;28;20148;-57
2021/03/03 20:59:43;;;;;;;30.38;22.33;;;;;;;12.49;48.60;101017.34;10259812;28;20133;-58
2021/03/03 21:04:45;;;;;;;31.77;23.33;;;;;;;12.45;48.53;101016.75;10262467;28;20142;-57
2021/03/03 21:09:46;;;;;;;28.23;22.95;;;;;;;12.40;48.73;101004.69;10261843;28;20051;-57
2021/03/03 21:14:48;;;;;;;31.98;23.15;;;;;;;12.29;49.07;101006.38;10264843;28;20134;-58
2021/03/03 21:19:49;;;;;;;28.38;21.95;;;;;;;12.37;48.84;101009.31;10260144;28;20049;-57
2021/03/03 21:24:50;;;;;;;30.42;21.50;;;;;;;12.44;49.80;101003.50;10264392;28;20636;-54
2021/03/03 21:29:52;;;;;;;32.50;24.35;;;;;;;12.45;48.68;100989.19;10265507;28;20157;-54
2021/03/03 21:34:53;;;;;;;32.10;22.55;;;;;;;12.21;49.36;100979.41;10259209;28;22310;-55
2021/03/03 21:39:54;;;;;;;31.85;23.95;;;;;;;12.34;49.28;101001.53;10259537;28;20125;-56
2021/03/03 21:44:55;;;;;;;29.23;22.75;;;;;;;12.36;49.06;100988.91;10261044;28;20134;-54
2021/03/03 21:49:57;;;;;;;31.83;25.15;;;;;;;12.14;49.07;100954.16;10248195;28;20138;-56
2021/03/03 21:54:58;;;;;;;28.65;22.92;;;;;;;12.24;48.97;100987.19;10256188;28;20057;-58
2021/03/03 21:59:59;;;;;;;35.38;23.40;;;;;;;12.21;49.26;100987.44;10244371;28;20130;-55
2021/03/03 22:05:00;;;;;;;31.52;24.40;;;;;;;12.17;49.34;100975.28;10251363;28;20047;-57
2021/03/03 22:10:03;;;;;;;31.88;21.98;;;;;;;12.10;49.38;100969.56;10253985;28;20136;-57
2021/03/03 22:15:05;;;;;;;26.77;21.33;;;;;;;12.09;49.81;100962.50;10258543;28;20158;-57
2021/03/03 22:20:07;;;;;;;28.25;22.65;;;;;;;12.00;49.43;100947.22;10262762;28;20076;-57
2021/03/03 22:25:09;;;;;;;28.05;22.45;;;;;;;12.00;49.77;100956.06;10255565;28;20594;-59
2021/03/03 22:30:11;;;;;;;30.90;23.17;;;;;;;11.93;49.80;100930.78;10262137;28;20133;-57
2021/03/03 22:35:13;;;;;;;27.27;22.50;;;;;;;12.01;49.92;100928.41;10260842;28;20151;-57
2021/03/03 22:40:14;;;;;;;27.08;21.83;;;;;;;11.89;50.34;100918.63;10262282;28;20326;-56
2021/03/03 22:45:16;;;;;;;29.45;23.60;;;;;;;11.73;50.69;100912.75;10263663;28;20451;-59
2021/03/03 22:50:17;;;;;;;32.88;23.05;;;;;;;11.83;50.71;100914.63;10254270;28;20074;-56